Kahloke — CZ3845 — position and weather

sailwx.info

Track history (hours):
 
Tides and Currents Weather Stations Pressure Air Temp Water Temp Dewpoint Dewpoint Depression Visibility Wind Speed Wind Dir Waves Ship Positions

Kahloke

Last reported at 2016-Sep-29 00:18 UTC. Time now 2016-Sep-29 06:51 UTC.
Position N 49°30' W 124°43'.

Length 54 m; draft 2 m.

Type: Passenger vessel. MMSI: 316001236.

Date/timePositionNaut miles runAvg speedWind from/ knotsBaromVisibWave heightAir tempDewpointWater temp
2016-Sep-29 00:18N 49°30' W 124°43'1 0.3
2016-Sep-28 21:33N 49°31' W 124°42'1 0.4
2016-Sep-28 19:33N 49°30' W 124°43'0 0.1
2016-Sep-28 16:06N 49°30' W 124°42'0 0.4
2016-Sep-28 15:11N 49°31' W 124°42'0 0.1
2016-Sep-28 12:25N 49°31' W 124°42'0 0.0
2016-Sep-28 01:06N 49°31' W 124°42'0 0.0
2016-Sep-27 14:33N 49°30' W 124°42'0 0.4
2016-Sep-27 13:33N 49°31' W 124°42'0 0.0
2016-Sep-27 10:33N 49°31' W 124°42'1 0.1
2016-Sep-27 00:33N 49°30' W 124°43'0 0.0
2016-Sep-26 20:33N 49°30' W 124°43'81992.5
2016-Sep-26 20:28N 48°26' W 123°26'0 0.0
2016-Sep-26 19:27N 48°26' W 123°26'81307.1
2016-Sep-26 19:11N 49°30' W 124°43'1 0.3
2016-Sep-26 15:33N 49°31' W 124°42'82258.0
2016-Sep-26 15:14N 48°26' W 123°26'8248.6
2016-Sep-26 13:33N 49°31' W 124°42'0 0.0
2016-Sep-26 11:33N 49°31' W 124°42'0 0.0
2016-Sep-26 08:33N 49°31' W 124°42'0 0.0
2016-Sep-26 02:32N 49°31' W 124°42'1 1.0
2016-Sep-26 01:33N 49°30' W 124°43'0 0.0
2016-Sep-26 00:33N 49°30' W 124°43'0 0.0
2016-Sep-25 21:33N 49°30' W 124°42'1 0.2
2016-Sep-25 17:33N 49°31' W 124°42'1 0.9
2016-Sep-25 16:33N 49°30' W 124°42'1 0.9
2016-Sep-25 15:34N 49°31' W 124°42'0 0.0
2016-Sep-25 14:33N 49°31' W 124°42'0 0.0
2016-Sep-25 12:33N 49°31' W 124°42'0 0.0
2016-Sep-25 11:33N 49°31' W 124°42'0 0.0
2016-Sep-25 10:33N 49°31' W 124°42'0 0.0
2016-Sep-25 09:34N 49°31' W 124°42'0 0.0
2016-Sep-25 07:33N 49°31' W 124°42'0 0.0
2016-Sep-25 04:33N 49°31' W 124°42'1 0.3
2016-Sep-25 00:33N 49°30' W 124°43'0 0.0
2016-Sep-24 22:33N 49°30' W 124°43'1 1.0
2016-Sep-24 21:33N 49°31' W 124°42'1 0.5
2016-Sep-24 19:33N 49°30' W 124°43'0 0.0
2016-Sep-24 18:32N 49°30' W 124°43'0 0.0
2016-Sep-24 17:31N 49°30' W 124°43'0 0.0
2016-Sep-24 16:31N 49°30' W 124°43'1 0.5
2016-Sep-24 14:33N 49°31' W 124°42'0 0.0
2016-Sep-24 12:33N 49°31' W 124°42'0 0.0
2016-Sep-24 10:33N 49°31' W 124°42'0 0.0
2016-Sep-24 09:33N 49°31' W 124°42'0 0.0
2016-Sep-24 03:33N 49°31' W 124°42'1 1.0
2016-Sep-24 02:29N 49°30' W 124°43'0 0.0
2016-Sep-24 01:24N 49°30' W 124°43'0 0.0
2016-Sep-24 00:32N 49°30' W 124°43'0 0.0
2016-Sep-23 19:31N 49°30' W 124°43'81456.7
2016-Sep-23 19:20N 48°26' W 123°26'8138.1
2016-Sep-23 17:12N 49°30' W 124°43'0 0.0
2016-Sep-23 16:28N 49°30' W 124°43'811205.7
2016-Sep-23 16:24N 48°26' W 123°26'8295.3
2016-Sep-23 15:33N 49°31' W 124°42'0 0.1
2016-Sep-23 13:33N 49°31' W 124°42'0 0.0
2016-Sep-23 09:33N 49°31' W 124°42'0 0.0
2016-Sep-23 06:33N 49°31' W 124°42'0 0.0
2016-Sep-23 04:25N 49°31' W 124°42'0 0.0
2016-Sep-23 03:06N 49°31' W 124°42'1 0.7
2016-Sep-23 01:33N 49°30' W 124°43'0 0.0
2016-Sep-23 00:33N 49°30' W 124°43'0 0.0
2016-Sep-22 23:33N 49°30' W 124°43'67457.4
2016-Sep-22 23:25N 49°07' W 123°05'6721.1
2016-Sep-22 20:14N 49°30' W 124°43'672286.8
2016-Sep-22 20:12N 49°07' W 123°05'67 8.8
2016-Sep-22 12:33N 49°31' W 124°42'0 0.0
2016-Sep-22 04:33N 49°31' W 124°42'0 0.0
2016-Sep-22 03:29N 49°31' W 124°42'1 0.3
2016-Sep-22 00:25N 49°30' W 124°43'0 0.0
2016-Sep-21 23:33N 49°30' W 124°43'0 0.0
2016-Sep-21 22:32N 49°30' W 124°43'0 0.0
2016-Sep-21 19:33N 49°30' W 124°43'67145.0
2016-Sep-21 19:05N 49°07' W 123°05'0 0.0
2016-Sep-21 16:33N 49°07' W 123°05'676925.8
2016-Sep-21 16:33N 49°30' W 124°43'67 9.6
2016-Sep-21 09:33N 49°07' W 123°05'67909.8
2016-Sep-21 09:29N 49°31' W 124°42'6772.9
2016-Sep-21 08:34N 49°07' W 123°05'67916.7
2016-Sep-21 08:29N 49°31' W 124°42'6723.1
2016-Sep-21 05:33N 49°07' W 123°05'0 0.0
2016-Sep-21 03:33N 49°07' W 123°05'672530.4
2016-Sep-21 03:32N 49°31' W 124°42'6769.3
2016-Sep-21 02:33N 49°07' W 123°05'67909.8
2016-Sep-21 02:29N 49°31' W 124°42'67 7.6
2016-Sep-20 17:34N 49°07' W 123°05'67178.4
2016-Sep-20 17:11N 49°30' W 124°43'6725.7
2016-Sep-20 14:34N 49°07' W 123°05'6760679.7
2016-Sep-20 14:33N 49°30' W 124°42'6767.5
2016-Sep-20 13:34N 49°07' W 123°05'67723.0
2016-Sep-20 13:28N 49°31' W 124°42'6723.2
2016-Sep-20 10:33N 49°07' W 123°05'67352.1
2016-Sep-20 10:22N 49°31' W 124°42'6737.3
2016-Sep-20 08:34N 49°07' W 123°05'0 0.0
2016-Sep-20 07:33N 49°07' W 123°05'671630.3
2016-Sep-20 07:31N 49°31' W 124°42'6770.4
2016-Sep-20 06:34N 49°07' W 123°05'0 0.0
2016-Sep-20 02:34N 49°07' W 123°05'67470.8
2016-Sep-20 02:25N 49°31' W 124°42'6723.6
2016-Sep-19 23:33N 49°07' W 123°05'67327.1
2016-Sep-19 23:21N 49°30' W 124°43'6717.7
2016-Sep-19 19:33N 49°07' W 123°05'67425.3
2016-Sep-19 19:24N 49°30' W 124°43'6780.0
2016-Sep-19 18:34N 49°07' W 123°05'67190.3
2016-Sep-19 18:12N 49°30' W 124°43'6740.9
2016-Sep-19 16:33N 49°07' W 123°05'67187.3
2016-Sep-19 16:12N 49°30' W 124°43'6741.0
2016-Sep-19 14:33N 49°07' W 123°05'671388.1
2016-Sep-19 14:30N 49°31' W 124°42'6770.9
2016-Sep-19 13:33N 49°07' W 123°05'0 0.0
2016-Sep-19 12:33N 49°07' W 123°05'0 0.0
2016-Sep-19 11:33N 49°07' W 123°05'0 0.0
2016-Sep-19 09:33N 49°07' W 123°05'67298.8
2016-Sep-19 09:20N 49°31' W 124°42'6738.0
2016-Sep-19 07:33N 49°07' W 123°05'67158.3
2016-Sep-19 07:08N 49°31' W 124°42'67117.6
2016-Sep-19 06:33N 49°07' W 123°05'0 0.0
2016-Sep-19 03:33N 49°07' W 123°05'0 0.0
2016-Sep-19 02:33N 49°07' W 123°05'0 0.0
2016-Sep-19 00:33N 49°07' W 123°05'678657.3
2016-Sep-19 00:33N 49°30' W 124°43'  
Track history (hours):
 
Tides and Currents Weather Stations Pressure Air Temp Water Temp Dewpoint Dewpoint Depression Visibility Wind Speed Wind Dir Waves Ship Positions

Kahloke

Last reported at 2016-Sep-29 00:18 UTC. Time now 2016-Sep-29 06:51 UTC.
Position N 49°30' W 124°43'.

Length 54 m; draft 2 m.

Type: Passenger vessel. MMSI: 316001236.

Date/timePositionNaut miles runAvg speedWind from/ knotsBaromVisibWave heightAir tempDewpointWater temp
2016-Sep-29 00:18N 49°30' W 124°43'1 0.3
2016-Sep-28 21:33N 49°31' W 124°42'1 0.4
2016-Sep-28 19:33N 49°30' W 124°43'0 0.1
2016-Sep-28 16:06N 49°30' W 124°42'0 0.4
2016-Sep-28 15:11N 49°31' W 124°42'0 0.1
2016-Sep-28 12:25N 49°31' W 124°42'0 0.0
2016-Sep-28 01:06N 49°31' W 124°42'0 0.0
2016-Sep-27 14:33N 49°30' W 124°42'0 0.4
2016-Sep-27 13:33N 49°31' W 124°42'0 0.0
2016-Sep-27 10:33N 49°31' W 124°42'1 0.1
2016-Sep-27 00:33N 49°30' W 124°43'0 0.0
2016-Sep-26 20:33N 49°30' W 124°43'81992.5
2016-Sep-26 20:28N 48°26' W 123°26'0 0.0
2016-Sep-26 19:27N 48°26' W 123°26'81307.1
2016-Sep-26 19:11N 49°30' W 124°43'1 0.3
2016-Sep-26 15:33N 49°31' W 124°42'82258.0
2016-Sep-26 15:14N 48°26' W 123°26'8248.6
2016-Sep-26 13:33N 49°31' W 124°42'0 0.0
2016-Sep-26 11:33N 49°31' W 124°42'0 0.0
2016-Sep-26 08:33N 49°31' W 124°42'0 0.0
2016-Sep-26 02:32N 49°31' W 124°42'1 1.0
2016-Sep-26 01:33N 49°30' W 124°43'0 0.0
2016-Sep-26 00:33N 49°30' W 124°43'0 0.0
2016-Sep-25 21:33N 49°30' W 124°42'1 0.2
2016-Sep-25 17:33N 49°31' W 124°42'1 0.9
2016-Sep-25 16:33N 49°30' W 124°42'1 0.9
2016-Sep-25 15:34N 49°31' W 124°42'0 0.0
2016-Sep-25 14:33N 49°31' W 124°42'0 0.0
2016-Sep-25 12:33N 49°31' W 124°42'0 0.0
2016-Sep-25 11:33N 49°31' W 124°42'0 0.0
2016-Sep-25 10:33N 49°31' W 124°42'0 0.0
2016-Sep-25 09:34N 49°31' W 124°42'0 0.0
2016-Sep-25 07:33N 49°31' W 124°42'0 0.0
2016-Sep-25 04:33N 49°31' W 124°42'1 0.3
2016-Sep-25 00:33N 49°30' W 124°43'0 0.0
2016-Sep-24 22:33N 49°30' W 124°43'1 1.0
2016-Sep-24 21:33N 49°31' W 124°42'1 0.5
2016-Sep-24 19:33N 49°30' W 124°43'0 0.0
2016-Sep-24 18:32N 49°30' W 124°43'0 0.0
2016-Sep-24 17:31N 49°30' W 124°43'0 0.0
2016-Sep-24 16:31N 49°30' W 124°43'1 0.5
2016-Sep-24 14:33N 49°31' W 124°42'0 0.0
2016-Sep-24 12:33N 49°31' W 124°42'0 0.0
2016-Sep-24 10:33N 49°31' W 124°42'0 0.0
2016-Sep-24 09:33N 49°31' W 124°42'0 0.0
2016-Sep-24 03:33N 49°31' W 124°42'1 1.0
2016-Sep-24 02:29N 49°30' W 124°43'0 0.0
2016-Sep-24 01:24N 49°30' W 124°43'0 0.0
2016-Sep-24 00:32N 49°30' W 124°43'0 0.0
2016-Sep-23 19:31N 49°30' W 124°43'81456.7
2016-Sep-23 19:20N 48°26' W 123°26'8138.1
2016-Sep-23 17:12N 49°30' W 124°43'0 0.0
2016-Sep-23 16:28N 49°30' W 124°43'811205.7
2016-Sep-23 16:24N 48°26' W 123°26'8295.3
2016-Sep-23 15:33N 49°31' W 124°42'0 0.1
2016-Sep-23 13:33N 49°31' W 124°42'0 0.0
2016-Sep-23 09:33N 49°31' W 124°42'0 0.0
2016-Sep-23 06:33N 49°31' W 124°42'0 0.0
2016-Sep-23 04:25N 49°31' W 124°42'0 0.0
2016-Sep-23 03:06N 49°31' W 124°42'1 0.7
2016-Sep-23 01:33N 49°30' W 124°43'0 0.0
2016-Sep-23 00:33N 49°30' W 124°43'0 0.0
2016-Sep-22 23:33N 49°30' W 124°43'67457.4
2016-Sep-22 23:25N 49°07' W 123°05'6721.1
2016-Sep-22 20:14N 49°30' W 124°43'672286.8
2016-Sep-22 20:12N 49°07' W 123°05'67 8.8
2016-Sep-22 12:33N 49°31' W 124°42'0 0.0
2016-Sep-22 04:33N 49°31' W 124°42'0 0.0
2016-Sep-22 03:29N 49°31' W 124°42'1 0.3
2016-Sep-22 00:25N 49°30' W 124°43'0 0.0
2016-Sep-21 23:33N 49°30' W 124°43'0 0.0
2016-Sep-21 22:32N 49°30' W 124°43'0 0.0
2016-Sep-21 19:33N 49°30' W 124°43'67145.0
2016-Sep-21 19:05N 49°07' W 123°05'0 0.0
2016-Sep-21 16:33N 49°07' W 123°05'676925.8
2016-Sep-21 16:33N 49°30' W 124°43'67 9.6
2016-Sep-21 09:33N 49°07' W 123°05'67909.8
2016-Sep-21 09:29N 49°31' W 124°42'6772.9
2016-Sep-21 08:34N 49°07' W 123°05'67916.7
2016-Sep-21 08:29N 49°31' W 124°42'6723.1
2016-Sep-21 05:33N 49°07' W 123°05'0 0.0
2016-Sep-21 03:33N 49°07' W 123°05'672530.4
2016-Sep-21 03:32N 49°31' W 124°42'6769.3
2016-Sep-21 02:33N 49°07' W 123°05'67909.8
2016-Sep-21 02:29N 49°31' W 124°42'67 7.6
2016-Sep-20 17:34N 49°07' W 123°05'67178.4
2016-Sep-20 17:11N 49°30' W 124°43'6725.7
2016-Sep-20 14:34N 49°07' W 123°05'6760679.7
2016-Sep-20 14:33N 49°30' W 124°42'6767.5
2016-Sep-20 13:34N 49°07' W 123°05'67723.0
2016-Sep-20 13:28N 49°31' W 124°42'6723.2
2016-Sep-20 10:33N 49°07' W 123°05'67352.1
2016-Sep-20 10:22N 49°31' W 124°42'6737.3
2016-Sep-20 08:34N 49°07' W 123°05'0 0.0
2016-Sep-20 07:33N 49°07' W 123°05'671630.3
2016-Sep-20 07:31N 49°31' W 124°42'6770.4
2016-Sep-20 06:34N 49°07' W 123°05'0 0.0
2016-Sep-20 02:34N 49°07' W 123°05'67470.8
2016-Sep-20 02:25N 49°31' W 124°42'6723.6
2016-Sep-19 23:33N 49°07' W 123°05'67327.1
2016-Sep-19 23:21N 49°30' W 124°43'6717.7
2016-Sep-19 19:33N 49°07' W 123°05'67425.3
2016-Sep-19 19:24N 49°30' W 124°43'6780.0
2016-Sep-19 18:34N 49°07' W 123°05'67190.3
2016-Sep-19 18:12N 49°30' W 124°43'6740.9
2016-Sep-19 16:33N 49°07' W 123°05'67187.3
2016-Sep-19 16:12N 49°30' W 124°43'6741.0
2016-Sep-19 14:33N 49°07' W 123°05'671388.1
2016-Sep-19 14:30N 49°31' W 124°42'6770.9
2016-Sep-19 13:33N 49°07' W 123°05'0 0.0
2016-Sep-19 12:33N 49°07' W 123°05'0 0.0
2016-Sep-19 11:33N 49°07' W 123°05'0 0.0
2016-Sep-19 09:33N 49°07' W 123°05'67298.8
2016-Sep-19 09:20N 49°31' W 124°42'6738.0
2016-Sep-19 07:33N 49°07' W 123°05'67158.3
2016-Sep-19 07:08N 49°31' W 124°42'67117.6
2016-Sep-19 06:33N 49°07' W 123°05'0 0.0
2016-Sep-19 03:33N 49°07' W 123°05'0 0.0
2016-Sep-19 02:33N 49°07' W 123°05'0 0.0
2016-Sep-19 00:33N 49°07' W 123°05'678657.3
2016-Sep-19 00:33N 49°30' W 124°43'  

Dump ship's entire track history